createdAt,value
2018-02-17T00:02:16.963Z,98070.25
2018-02-17T00:04:44.646Z,98066.05
2018-02-17T00:07:12.459Z,98062.27
2018-02-17T00:09:40.366Z,98059.77
2018-02-17T00:12:08.130Z,98056.41
2018-02-17T00:14:36.291Z,98048.03
2018-02-17T00:17:04.176Z,98060.94
2018-02-17T00:19:31.942Z,98054.27
2018-02-17T00:21:59.810Z,98043.02
2018-02-17T00:24:27.682Z,98038.38
2018-02-17T00:26:55.857Z,98027.95
2018-02-17T00:29:23.726Z,98042.95
2018-02-17T00:31:51.322Z,98041.32
2018-02-17T00:34:19.049Z,98044.25
2018-02-17T00:36:46.814Z,98035.91
2018-02-17T00:39:14.583Z,98036.77
2018-02-17T00:41:42.188Z,98030.09
2018-02-17T00:44:09.988Z,98027.16
2018-02-17T00:46:37.550Z,98017.11
2018-02-17T00:49:05.212Z,98002.12
2018-02-17T00:51:32.779Z,97999.59
2018-02-17T00:54:00.307Z,97999.98
2018-02-17T00:56:27.863Z,97993.30
2018-02-17T00:58:55.406Z,97982.44
2018-02-17T01:01:22.928Z,97986.23
2018-02-17T01:03:50.495Z,97980.81
2018-02-17T01:06:18.011Z,97980.42
2018-02-17T01:08:45.535Z,97975.00
2018-02-17T01:11:13.085Z,97975.36
2018-02-17T01:13:40.602Z,97973.73
2018-02-17T01:16:08.621Z,97956.69
2018-02-17T01:18:36.144Z,97951.71
2018-02-17T01:21:03.672Z,97950.86
2018-02-17T01:23:31.230Z,97948.34
2018-02-17T01:25:58.744Z,97947.12
2018-02-17T01:28:26.310Z,97942.94
2018-02-17T01:30:53.831Z,97937.11
2018-02-17T01:33:21.357Z,97937.54
2018-02-17T01:35:48.918Z,97931.30
2018-02-17T01:38:16.498Z,97924.61
2018-02-17T01:40:44.185Z,97916.66
2018-02-17T01:43:11.706Z,97913.75
2018-02-17T01:45:39.225Z,97914.57
2018-02-17T01:48:06.780Z,97901.64
2018-02-17T01:50:34.297Z,97881.17
2018-02-17T01:53:02.359Z,97868.23
2018-02-17T01:55:30.026Z,97871.58
2018-02-17T01:57:57.639Z,97878.26
2018-02-17T02:00:25.186Z,97885.75
2018-02-17T02:02:52.710Z,97889.52
2018-02-17T02:05:20.510Z,97889.09
2018-02-17T02:07:48.029Z,97868.22
2018-02-17T02:10:16.048Z,97850.30
2018-02-17T02:12:43.598Z,97844.02
2018-02-17T02:15:11.123Z,97847.77
2018-02-17T02:17:38.681Z,97843.20
2018-02-17T02:20:06.198Z,97856.55
2018-02-17T02:22:33.712Z,97853.21
2018-02-17T02:25:01.257Z,97844.02
2018-02-17T02:27:28.786Z,97849.86
2018-02-17T02:29:56.819Z,97864.47
2018-02-17T02:32:24.344Z,97871.99
2018-02-17T02:34:51.871Z,97873.23
2018-02-17T02:37:19.437Z,97876.59
2018-02-17T02:39:46.963Z,97861.98
2018-02-17T02:42:14.716Z,97861.56
2018-02-17T02:44:42.250Z,97867.81
2018-02-17T02:47:09.783Z,97879.92
2018-02-17T02:49:37.344Z,97887.86
2018-02-17T02:52:04.880Z,97888.27
2018-02-17T02:54:32.823Z,97871.98
2018-02-17T02:57:00.354Z,97864.88
2018-02-17T02:59:27.887Z,97855.26
2018-02-17T03:01:55.442Z,97861.94
2018-02-17T03:04:22.982Z,97860.67
2018-02-17T03:06:50.933Z,97851.92
2018-02-17T03:09:18.457Z,97853.18
2018-02-17T03:11:45.989Z,97839.81
2018-02-17T03:14:13.533Z,97835.20
2018-02-17T03:16:41.081Z,97828.94
2018-02-17T03:19:08.642Z,97821.01
2018-02-17T03:21:36.164Z,97820.65
2018-02-17T03:24:03.699Z,97816.88
2018-02-17T03:26:31.262Z,97811.05
2018-02-17T03:28:58.795Z,97798.91
2018-02-17T03:31:26.346Z,97813.54
2018-02-17T03:33:53.894Z,97813.13
2018-02-17T03:36:21.412Z,97810.60
2018-02-17T03:38:48.966Z,97804.38
2018-02-17T03:41:16.490Z,97792.65
2018-02-17T03:43:44.329Z,97782.61
2018-02-17T03:46:11.849Z,97770.89
2018-02-17T03:48:39.385Z,97766.81
2018-02-17T03:51:06.925Z,97750.52
2018-02-17T03:53:34.442Z,97735.41
2018-02-17T03:56:02.107Z,97730.88
2018-02-17T03:58:29.632Z,97742.58
2018-02-17T04:00:57.156Z,97740.08
2018-02-17T04:03:24.707Z,97737.55
2018-02-17T04:05:52.224Z,97733.84
2018-02-17T04:08:19.783Z,97730.13
2018-02-17T04:10:47.296Z,97713.84
2018-02-17T04:13:14.818Z,97703.01
2018-02-17T04:15:42.370Z,97690.09
2018-02-17T04:18:09.893Z,97688.80
2018-02-17T04:20:37.591Z,97680.50
2018-02-17T04:23:05.106Z,97678.36
2018-02-17T04:25:32.622Z,97685.05
2018-02-17T04:28:00.183Z,97692.94
2018-02-17T04:30:27.710Z,97692.95
2018-02-17T04:32:55.261Z,97688.80
2018-02-17T04:35:22.785Z,97690.90
2018-02-17T04:37:50.309Z,97679.55
2018-02-17T04:43:38.587Z,97675.78
2018-02-17T04:46:08.195Z,97685.44
2018-02-17T04:48:36.260Z,97696.61
2018-02-17T04:54:27.282Z,97699.06
2018-02-17T04:57:00.388Z,97686.09
2018-02-17T04:59:34.298Z,97685.69
2018-02-17T05:05:24.027Z,97673.64
2018-02-17T05:07:52.323Z,97673.28
2018-02-17T05:10:19.846Z,97665.64
2018-02-17T05:12:47.392Z,97671.08
2018-02-17T05:15:19.674Z,97667.39
2018-02-17T05:17:53.126Z,97666.44
2018-02-17T05:20:36.258Z,97656.06
2018-02-17T05:26:06.566Z,97645.17
2018-02-17T05:28:34.302Z,97641.00
2018-02-17T05:31:03.347Z,97635.50
2018-02-17T05:33:36.643Z,97630.42
2018-02-17T05:39:07.627Z,97633.73
2018-02-17T05:41:50.930Z,97616.97
2018-02-17T05:47:26.438Z,97638.63
2018-02-17T05:49:56.498Z,97641.98
2018-02-17T05:52:24.018Z,97633.31
2018-02-17T05:54:51.546Z,97631.25
2018-02-17T05:57:19.093Z,97612.48
2018-02-17T05:59:46.621Z,97590.75
2018-02-17T06:02:14.406Z,97585.03
2018-02-17T06:04:41.917Z,97572.91
2018-02-17T06:07:09.447Z,97560.14
2018-02-17T06:09:36.998Z,97558.08
2018-02-17T06:12:05.426Z,97556.43
2018-02-17T06:14:32.994Z,97535.98
2018-02-17T06:17:00.511Z,97520.93
2018-02-17T06:19:28.028Z,97504.69
2018-02-17T06:21:55.573Z,97505.98
2018-02-17T06:24:23.095Z,97514.77
2018-02-17T06:26:50.734Z,97522.20
2018-02-17T06:29:18.249Z,97523.16
2018-02-17T06:31:45.771Z,97547.64
2018-02-17T06:34:13.318Z,97545.99
2018-02-17T06:36:40.828Z,97525.46
2018-02-17T06:39:08.382Z,97517.23
2018-02-17T06:41:35.905Z,97528.02
2018-02-17T06:44:03.414Z,97532.59
2018-02-17T06:46:30.963Z,97532.54
2018-02-17T06:48:58.477Z,97531.17
2018-02-17T06:51:26.196Z,97526.73
2018-02-17T06:53:53.782Z,97540.00
2018-02-17T06:56:21.310Z,97567.27
2018-02-17T06:58:48.854Z,97576.41
2018-02-17T07:01:16.374Z,97584.81
2018-02-17T07:03:44.029Z,97585.66
2018-02-17T07:06:11.545Z,97580.53
2018-02-17T07:08:39.062Z,97565.48
2018-02-17T07:11:06.609Z,97568.89
2018-02-17T07:13:34.132Z,97571.41
2018-02-17T07:16:02.838Z,97561.34
2018-02-17T07:18:30.361Z,97564.04
2018-02-17T07:20:57.876Z,97568.89
2018-02-17T07:23:25.414Z,97566.83
2018-02-17T07:25:52.930Z,97546.95
2018-02-17T07:28:20.530Z,97533.66
2018-02-17T07:30:48.049Z,97528.23
2018-02-17T07:33:15.576Z,97526.27
2018-02-17T07:35:43.138Z,97526.69
2018-02-17T07:38:10.658Z,97528.04
2018-02-17T07:40:38.532Z,97535.34
2018-02-17T07:43:06.066Z,97539.05
2018-02-17T07:45:33.591Z,97543.42
2018-02-17T07:48:01.138Z,97554.19
2018-02-17T07:50:28.769Z,97544.84
2018-02-17T07:52:56.719Z,97547.38
2018-02-17T07:55:24.229Z,97540.53
2018-02-17T07:57:51.748Z,97538.36
2018-02-17T08:00:20.137Z,97526.59
2018-02-17T08:02:47.674Z,97518.84
2018-02-17T08:05:15.230Z,97524.96
2018-02-17T08:07:43.016Z,97518.75
2018-02-17T08:10:10.639Z,97515.38
2018-02-17T08:12:38.542Z,97499.89
2018-02-17T08:15:06.308Z,97503.88
2018-02-17T08:17:34.053Z,97484.70
2018-02-17T08:20:01.576Z,97465.80
2018-02-17T08:22:29.127Z,97476.45
2018-02-17T08:24:56.680Z,97472.28
2018-02-17T08:27:24.412Z,97457.08
2018-02-17T08:29:52.359Z,97449.52
2018-02-17T08:32:19.883Z,97463.67
2018-02-17T08:34:48.015Z,97462.48
2018-02-17T08:37:15.558Z,97449.67
2018-02-17T08:39:43.316Z,97451.67
2018-02-17T08:42:11.101Z,97478.11
2018-02-17T08:44:38.967Z,97465.78
2018-02-17T08:47:06.510Z,97458.62
2018-02-17T08:49:34.288Z,97449.00
2018-02-17T08:52:01.957Z,97445.59
2018-02-17T08:54:29.817Z,97432.34
2018-02-17T08:56:57.688Z,97429.23
2018-02-17T08:59:25.551Z,97429.98
2018-02-17T09:01:53.153Z,97434.27
2018-02-17T09:04:20.975Z,97415.55
2018-02-17T09:06:49.252Z,97416.70
2018-02-17T09:09:17.055Z,97424.13
2018-02-17T09:11:44.883Z,97416.81
2018-02-17T09:14:13.056Z,97393.49
2018-02-17T09:16:40.922Z,97374.56
2018-02-17T09:19:08.792Z,97379.87
2018-02-17T09:21:36.671Z,97385.50
2018-02-17T09:24:04.525Z,97391.91
2018-02-17T09:26:32.671Z,97387.09
2018-02-17T09:29:01.039Z,97376.72
2018-02-17T09:31:28.940Z,97375.64
2018-02-17T09:33:56.807Z,97377.83
2018-02-17T09:36:24.570Z,97375.20
2018-02-17T09:38:52.804Z,97372.80
2018-02-17T09:41:20.817Z,97363.83
2018-02-17T09:43:48.683Z,97364.20
2018-02-17T09:46:16.415Z,97369.64
2018-02-17T09:48:44.292Z,97369.36
2018-02-17T09:51:12.180Z,97370.02
2018-02-17T09:53:40.148Z,97369.60
2018-02-17T09:56:08.017Z,97374.39
2018-02-17T09:58:35.778Z,97377.60
2018-02-17T10:01:03.749Z,97372.80
2018-02-17T10:03:31.545Z,97378.76
2018-02-17T10:05:59.379Z,97374.15
2018-02-17T10:08:27.246Z,97374.95
2018-02-17T10:10:55.536Z,97372.89
2018-02-17T10:13:23.563Z,97379.13
2018-02-17T10:15:52.383Z,97378.16
2018-02-17T10:18:20.395Z,97383.27
2018-02-17T10:20:48.289Z,97390.30
2018-02-17T10:23:16.085Z,97392.22
2018-02-17T10:25:44.974Z,97397.65
2018-02-17T10:28:13.045Z,97404.44
2018-02-17T10:30:40.915Z,97414.55
2018-02-17T10:33:08.982Z,97413.73
2018-02-17T10:35:36.884Z,97416.53
2018-02-17T10:38:05.025Z,97413.48
2018-02-17T10:40:32.889Z,97425.00
2018-02-17T10:43:00.657Z,97431.03
2018-02-17T10:45:28.623Z,97431.05
2018-02-17T10:47:57.458Z,97430.56
2018-02-17T10:50:25.484Z,97431.36
2018-02-17T10:52:53.429Z,97427.40
2018-02-17T10:55:21.371Z,97435.23
2018-02-17T10:57:49.261Z,97429.45
2018-02-17T11:00:17.257Z,97441.70
2018-02-17T11:02:45.431Z,97445.73
2018-02-17T11:05:13.295Z,97447.16
2018-02-17T11:07:41.163Z,97453.64
2018-02-17T11:10:09.170Z,97453.47
2018-02-17T11:12:36.998Z,97447.97
2018-02-17T11:15:05.682Z,97443.85
2018-02-17T11:17:33.520Z,97448.84
2018-02-17T11:20:01.416Z,97437.97
2018-02-17T11:22:29.487Z,97437.46
2018-02-17T11:24:57.353Z,97440.36
2018-02-17T11:27:25.434Z,97432.52
2018-02-17T11:29:53.292Z,97428.70
2018-02-17T11:32:21.134Z,97424.36
2018-02-17T11:34:49.025Z,97422.34
2018-02-17T11:37:16.827Z,97419.26
2018-02-17T11:39:45.681Z,97425.25
2018-02-17T11:42:13.649Z,97424.03
2018-02-17T11:44:42.128Z,97417.93
2018-02-17T11:47:10.068Z,97421.00
2018-02-17T11:49:38.271Z,97416.33
2018-02-17T11:52:06.483Z,97416.39
2018-02-17T11:54:34.170Z,97411.61
2018-02-17T11:57:02.385Z,97421.99
2018-02-17T11:59:30.224Z,97416.31
2018-02-17T12:01:58.630Z,97416.03
2018-02-17T12:04:26.884Z,97412.94
2018-02-17T12:06:54.770Z,97410.46
2018-02-17T12:09:23.254Z,97402.47
2018-02-17T12:11:51.223Z,97401.33
2018-02-17T12:14:19.226Z,97401.67
2018-02-17T12:16:47.219Z,97398.27
2018-02-17T12:19:15.126Z,97392.52
2018-02-17T12:21:42.992Z,97387.61
2018-02-17T12:24:10.967Z,97387.68
2018-02-17T12:26:38.878Z,97387.02
2018-02-17T12:29:06.797Z,97386.01
2018-02-17T12:31:34.663Z,97374.77
2018-02-17T12:34:02.531Z,97382.48
2018-02-17T12:36:30.499Z,97376.48
2018-02-17T12:38:59.366Z,97374.38
2018-02-17T12:41:28.388Z,97375.05
2018-02-17T12:43:56.248Z,97376.66
2018-02-17T12:46:24.115Z,97375.70
2018-02-17T12:48:52.058Z,97374.47
2018-02-17T12:51:19.949Z,97377.59
2018-02-17T12:53:47.920Z,97376.70
2018-02-17T12:56:15.786Z,97375.14
2018-02-17T12:58:43.524Z,97377.63
2018-02-17T13:01:11.928Z,97379.94
2018-02-17T13:03:40.000Z,97380.30
2018-02-17T13:06:07.865Z,97382.97
2018-02-17T13:08:36.555Z,97378.84
2018-02-17T13:11:04.418Z,97379.08
2018-02-17T13:13:32.283Z,97374.69
2018-02-17T13:16:00.150Z,97376.11
2018-02-17T13:18:27.981Z,97365.77
2018-02-17T13:20:57.013Z,97375.17
2018-02-17T13:23:24.876Z,97377.41
2018-02-17T13:25:52.806Z,97383.81
2018-02-17T13:28:26.754Z,97385.48
2018-02-17T13:30:54.690Z,97382.25
2018-02-17T13:33:22.488Z,97382.25
2018-02-17T13:35:50.352Z,97385.44
2018-02-17T13:38:18.834Z,97381.48
2018-02-17T13:40:46.906Z,97379.04
2018-02-17T13:43:14.763Z,97383.57
2018-02-17T13:45:42.639Z,97379.32
2018-02-17T13:48:10.504Z,97388.00
2018-02-17T13:50:38.269Z,97383.31
2018-02-17T13:53:06.546Z,97383.83
2018-02-17T13:55:35.861Z,97385.41
2018-02-17T13:58:03.695Z,97393.61
2018-02-17T14:00:31.578Z,97379.52
2018-02-17T14:03:00.366Z,97389.84
2018-02-17T14:05:28.233Z,97389.44
2018-02-17T14:07:56.308Z,97387.30
2018-02-17T14:10:24.068Z,97403.11
2018-02-17T14:12:51.941Z,97399.29
2018-02-17T14:15:21.032Z,97393.28
2018-02-17T14:17:48.999Z,97387.98
2018-02-17T14:20:16.968Z,97386.27
2018-02-17T14:22:44.838Z,97385.59
2018-02-17T14:25:13.520Z,97389.63
2018-02-17T14:27:41.488Z,97399.48
2018-02-17T14:30:09.285Z,97401.41
2018-02-17T14:32:37.631Z,97399.39
2018-02-17T14:35:06.111Z,97395.00
2018-02-17T14:37:34.184Z,97401.72
2018-02-17T14:40:02.153Z,97412.00
2018-02-17T14:42:30.019Z,97421.80
2018-02-17T14:44:57.987Z,97432.22
2018-02-17T14:47:25.956Z,97428.83
2018-02-17T14:49:53.823Z,97435.30
2018-02-17T14:52:21.791Z,97450.61
2018-02-17T14:54:49.766Z,97451.02
2018-02-17T14:57:18.650Z,97461.48
2018-02-17T14:59:46.585Z,97468.98
2018-02-17T15:02:15.612Z,97475.50
2018-02-17T15:04:43.683Z,97465.31
2018-02-17T15:07:12.371Z,97466.92
2018-02-17T15:09:40.721Z,97467.23
2018-02-17T15:12:08.615Z,97469.05
2018-02-17T15:14:37.574Z,97468.04
2018-02-17T15:17:05.474Z,97470.66
2018-02-17T15:19:34.058Z,97473.02
2018-02-17T15:24:29.883Z,97471.13
2018-02-17T15:26:57.759Z,97474.25
2018-02-17T15:29:25.624Z,97476.59
2018-02-17T15:31:53.353Z,97474.87
2018-02-17T15:34:21.255Z,97473.11
2018-02-17T15:36:49.224Z,97484.34
2018-02-17T15:39:18.217Z,97498.71
2018-02-17T15:41:46.707Z,97498.78
2018-02-17T15:44:14.533Z,97483.72
2018-02-17T15:46:43.558Z,97490.45
2018-02-17T15:49:11.390Z,97494.64
2018-02-17T15:51:39.803Z,97500.87
2018-02-17T15:54:07.771Z,97512.16
2018-02-17T15:56:36.016Z,97508.77
2018-02-17T15:59:03.916Z,97506.95
2018-02-17T16:01:31.781Z,97514.02
2018-02-17T16:03:59.751Z,97524.26
2018-02-17T16:06:27.718Z,97523.79
2018-02-17T16:08:55.806Z,97532.39
2018-02-17T16:11:23.815Z,97533.39
2018-02-17T16:13:51.728Z,97539.88
2018-02-17T16:16:19.595Z,97547.22
2018-02-17T16:18:47.669Z,97552.89
2018-02-17T16:21:15.532Z,97553.39
2018-02-17T16:23:43.501Z,97561.49
2018-02-17T16:26:11.572Z,97570.63
2018-02-17T16:28:39.406Z,97572.68
2018-02-17T16:31:07.305Z,97573.50
2018-02-17T16:33:36.196Z,97588.59
2018-02-17T16:36:04.383Z,97591.50
2018-02-17T16:38:32.235Z,97591.43
2018-02-17T16:41:00.110Z,97594.38
2018-02-17T16:43:27.969Z,97601.91
2018-02-17T16:45:55.744Z,97601.94
2018-02-17T16:48:24.008Z,97603.94
2018-02-17T16:50:53.001Z,97616.02
2018-02-17T16:53:21.072Z,97607.67
2018-02-17T16:55:48.942Z,97611.86
2018-02-17T16:58:16.805Z,97618.16
2018-02-17T17:00:45.389Z,97622.78
2018-02-17T17:03:13.255Z,97619.46
2018-02-17T17:05:41.122Z,97618.98
2018-02-17T17:08:09.193Z,97620.22
2018-02-17T17:10:37.060Z,97630.29
2018-02-17T17:13:06.462Z,97635.25
2018-02-17T17:15:34.329Z,97647.38
2018-02-17T17:18:02.196Z,97652.83
2018-02-17T17:20:30.061Z,97663.20
2018-02-17T17:22:58.134Z,97665.80
2018-02-17T17:25:26.262Z,97667.86
2018-02-17T17:27:54.172Z,97670.38
2018-02-17T17:30:22.756Z,97674.53
2018-02-17T17:32:50.725Z,97670.80
2018-02-17T17:35:19.103Z,97673.31
2018-02-17T17:37:48.169Z,97678.33
2018-02-17T17:40:16.066Z,97685.41
2018-02-17T17:42:43.932Z,97695.32
2018-02-17T17:45:11.869Z,97702.45
2018-02-17T17:47:40.074Z,97711.61
2018-02-17T17:50:08.861Z,97707.45
2018-02-17T17:52:36.693Z,97709.13
2018-02-17T17:55:04.701Z,97718.82
2018-02-17T17:57:32.768Z,97726.27
2018-02-17T18:00:00.635Z,97731.25
2018-02-17T18:02:28.604Z,97736.73
2018-02-17T18:04:56.471Z,97739.25
2018-02-17T18:07:24.337Z,97745.45
2018-02-17T18:09:52.203Z,97747.95
2018-02-17T18:12:20.001Z,97747.16
2018-02-17T18:14:47.937Z,97747.52
2018-02-17T18:17:15.706Z,97758.00
2018-02-17T18:19:43.526Z,97768.50
2018-02-17T18:22:12.252Z,97774.75
2018-02-17T18:24:40.119Z,97776.83
2018-02-17T18:27:08.395Z,97779.73
2018-02-17T18:29:36.342Z,97780.58
2018-02-17T18:32:04.229Z,97777.66
2018-02-17T18:34:35.886Z,97783.06
2018-02-17T18:37:03.716Z,97781.41
2018-02-17T18:39:31.825Z,97788.11
2018-02-17T18:41:59.689Z,97792.67
2018-02-17T18:44:27.696Z,97796.88
2018-02-17T18:46:55.735Z,97804.80
2018-02-17T18:49:23.596Z,97799.38
2018-02-17T18:51:52.462Z,97796.85
2018-02-17T18:54:20.284Z,97803.53
2018-02-17T18:56:49.243Z,97801.05
2018-02-17T18:59:17.191Z,97809.38
2018-02-17T19:01:45.080Z,97811.45
2018-02-17T19:04:13.476Z,97807.72
2018-02-17T19:06:41.426Z,97814.37
2018-02-17T19:09:09.292Z,97820.23
2018-02-17T19:11:37.261Z,97816.88
2018-02-17T19:14:05.229Z,97810.19
2018-02-17T19:16:33.096Z,97818.55
2018-02-17T19:19:00.965Z,97820.23
2018-02-17T19:21:29.955Z,97817.73
2018-02-17T19:23:57.822Z,97818.16
2018-02-17T19:26:25.690Z,97820.64
2018-02-17T19:28:54.169Z,97823.15
2018-02-17T19:31:23.164Z,97821.48
2018-02-17T19:33:51.246Z,97818.97
2018-02-17T19:36:19.203Z,97824.42
2018-02-17T19:38:48.196Z,97826.06
2018-02-17T19:41:16.721Z,97832.75
2018-02-17T19:43:44.638Z,97829.83
2018-02-17T19:46:13.444Z,97829.82
2018-02-17T19:48:41.610Z,97828.58
2018-02-17T19:51:09.687Z,97835.69
2018-02-17T19:53:37.647Z,97835.25
2018-02-17T19:56:05.616Z,97844.03
2018-02-17T19:58:34.301Z,97850.27
2018-02-17T20:01:02.884Z,97846.09
2018-02-17T20:03:30.752Z,97845.27
2018-02-17T20:05:59.133Z,97854.02
2018-02-17T20:08:28.240Z,97855.28
2018-02-17T20:10:56.877Z,97855.69
2018-02-17T20:13:24.879Z,97859.44
2018-02-17T20:15:53.256Z,97860.29
2018-02-17T20:18:21.194Z,97859.44
2018-02-17T20:20:49.808Z,97871.14
2018-02-17T20:23:18.379Z,97876.98
2018-02-17T20:25:46.198Z,97877.82
2018-02-17T20:28:14.535Z,97883.24
2018-02-17T20:30:42.913Z,97881.15
2018-02-17T20:33:10.784Z,97882.41
2018-02-17T20:35:39.261Z,97881.16
2018-02-17T20:38:07.537Z,97888.69
2018-02-17T20:40:35.506Z,97886.58
2018-02-17T20:43:03.537Z,97889.09
2018-02-17T20:45:31.648Z,97889.50
2018-02-17T20:47:59.593Z,97887.01
2018-02-17T20:50:27.460Z,97892.41
2018-02-17T20:52:55.556Z,97896.19
2018-02-17T20:55:23.934Z,97897.03
2018-02-17T20:57:51.800Z,97897.45
2018-02-17T21:00:20.081Z,97900.38
2018-02-17T21:02:47.971Z,97907.04
2018-02-17T21:05:15.911Z,97906.62
2018-02-17T21:07:44.615Z,97913.74
2018-02-17T21:10:12.668Z,97908.73
2018-02-17T21:12:40.683Z,97914.14
2018-02-17T21:15:09.224Z,97914.59
2018-02-17T21:17:37.291Z,97916.67
2018-02-17T21:20:06.183Z,97918.34
2018-02-17T21:22:34.001Z,97918.73
2018-02-17T21:25:01.990Z,97922.93
2018-02-17T21:27:29.883Z,97925.84
2018-02-17T21:29:59.389Z,97926.27
2018-02-17T21:32:28.177Z,97931.71
2018-02-17T21:34:56.042Z,97935.03
2018-02-17T21:37:24.216Z,97938.78
2018-02-17T21:39:52.519Z,97943.37
2018-02-17T21:42:20.975Z,97951.73
2018-02-17T21:44:49.044Z,97945.48
2018-02-17T21:47:17.628Z,97952.57
2018-02-17T21:49:45.958Z,97955.91
2018-02-17T21:52:13.874Z,97958.41
2018-02-17T21:54:41.738Z,97962.61
2018-02-17T21:57:09.913Z,97965.53
2018-02-17T21:59:37.781Z,97966.36
2018-02-17T22:02:05.716Z,97971.36
2018-02-17T22:04:33.591Z,97966.77
2018-02-17T22:07:05.530Z,97970.55
2018-02-17T22:09:33.446Z,97981.41
2018-02-17T22:12:01.619Z,97978.89
2018-02-17T22:14:29.705Z,97983.09
2018-02-17T22:16:58.680Z,97980.55
2018-02-17T22:19:27.371Z,97983.92
2018-02-17T22:21:55.335Z,97983.07
2018-02-17T22:24:23.201Z,97990.58
2018-02-17T22:26:51.498Z,97986.40
2018-02-17T22:29:21.289Z,97984.75
2018-02-17T22:31:49.158Z,97995.17
2018-02-17T22:34:17.093Z,97991.44
2018-02-17T22:36:44.991Z,97986.84
2018-02-17T22:39:13.015Z,97994.78
2018-02-17T22:41:40.883Z,97995.16
2018-02-17T22:44:09.173Z,98000.59
2018-02-17T22:46:38.887Z,97998.53
2018-02-17T22:49:06.781Z,97993.94
2018-02-17T22:51:34.854Z,97995.61
2018-02-17T22:54:03.092Z,97997.28
2018-02-17T22:56:32.024Z,97993.50
2018-02-17T22:59:00.001Z,97997.27
2018-02-17T23:01:28.980Z,97993.49
2018-02-17T23:03:57.053Z,97995.98
2018-02-17T23:06:25.432Z,98001.84
2018-02-17T23:08:54.030Z,98004.33
2018-02-17T23:11:23.253Z,98007.23
2018-02-17T23:13:52.402Z,98010.59
2018-02-17T23:16:21.975Z,98013.91
2018-02-17T23:18:54.755Z,98018.09
2018-02-17T23:21:25.576Z,98023.52
2018-02-17T23:23:54.013Z,98023.53
2018-02-17T23:26:23.620Z,98031.45
2018-02-17T23:28:51.590Z,98028.95
2018-02-17T23:31:19.486Z,98035.19
2018-02-17T23:33:48.254Z,98033.87
2018-02-17T23:36:16.518Z,98036.34
2018-02-17T23:38:44.897Z,98033.45
2018-02-17T23:41:13.586Z,98034.30
2018-02-17T23:43:42.167Z,98039.69
2018-02-17T23:46:11.058Z,98048.48
2018-02-17T23:48:38.923Z,98049.32
2018-02-17T23:51:07.199Z,98051.39
2018-02-17T23:53:35.066Z,98056.86
2018-02-17T23:56:02.932Z,98061.00
2018-02-17T23:58:30.901Z,98062.73
